sensor_id;sensor_type;location;lat;lon;timestamp;temperature;humidity
13892;DHT22;7016;48.172;8.058;2022-12-10T00:00:19;2.70;99.90
13892;DHT22;7016;48.172;8.058;2022-12-10T00:02:45;2.80;99.90
13892;DHT22;7016;48.172;8.058;2022-12-10T00:05:10;2.70;99.90
13892;DHT22;7016;48.172;8.058;2022-12-10T00:07:36;2.70;99.90
13892;DHT22;7016;48.172;8.058;2022-12-10T00:10:02;2.70;99.90
13892;DHT22;7016;48.172;8.058;2022-12-10T00:12:27;2.60;99.90
13892;DHT22;7016;48.172;8.058;2022-12-10T00:14:53;2.60;99.90
13892;DHT22;7016;48.172;8.058;2022-12-10T00:17:19;2.60;99.90
13892;DHT22;7016;48.172;8.058;2022-12-10T00:19:44;2.70;99.90
13892;DHT22;7016;48.172;8.058;2022-12-10T00:22:10;2.80;99.90
13892;DHT22;7016;48.172;8.058;2022-12-10T00:24:36;2.80;99.90
13892;DHT22;7016;48.172;8.058;2022-12-10T00:27:02;2.80;99.90
13892;DHT22;7016;48.172;8.058;2022-12-10T00:29:27;2.90;99.90
13892;DHT22;7016;48.172;8.058;2022-12-10T00:31:53;2.90;99.90
13892;DHT22;7016;48.172;8.058;2022-12-10T00:34:19;2.80;99.90
13892;DHT22;7016;48.172;8.058;2022-12-10T00:36:46;2.90;99.90
13892;DHT22;7016;48.172;8.058;2022-12-10T00:39:14;2.80;99.90
13892;DHT22;7016;48.172;8.058;2022-12-10T00:41:40;2.80;99.90
13892;DHT22;7016;48.172;8.058;2022-12-10T00:44:06;2.80;99.90
13892;DHT22;7016;48.172;8.058;2022-12-10T00:46:32;2.80;99.90
13892;DHT22;7016;48.172;8.058;2022-12-10T00:48:58;2.80;99.90
13892;DHT22;7016;48.172;8.058;2022-12-10T00:51:26;2.80;99.90
13892;DHT22;7016;48.172;8.058;2022-12-10T00:53:53;2.70;99.90
13892;DHT22;7016;48.172;8.058;2022-12-10T00:56:22;2.70;99.90
13892;DHT22;7016;48.172;8.058;2022-12-10T00:58:49;2.60;99.90
13892;DHT22;7016;48.172;8.058;2022-12-10T01:01:22;2.60;99.90
13892;DHT22;7016;48.172;8.058;2022-12-10T01:03:51;2.60;99.90
13892;DHT22;7016;48.172;8.058;2022-12-10T01:06:23;2.60;99.90
13892;DHT22;7016;48.172;8.058;2022-12-10T01:08:50;2.60;99.90
13892;DHT22;7016;48.172;8.058;2022-12-10T01:11:19;2.70;99.90
13892;DHT22;7016;48.172;8.058;2022-12-10T01:13:45;2.70;99.90
13892;DHT22;7016;48.172;8.058;2022-12-10T01:16:13;2.80;99.90
13892;DHT22;7016;48.172;8.058;2022-12-10T01:18:39;2.80;99.90
13892;DHT22;7016;48.172;8.058;2022-12-10T01:21:07;2.80;99.90
13892;DHT22;7016;48.172;8.058;2022-12-10T01:23:38;2.80;99.90
13892;DHT22;7016;48.172;8.058;2022-12-10T01:26:14;2.70;99.90
13892;DHT22;7016;48.172;8.058;2022-12-10T01:28:40;2.80;99.90
13892;DHT22;7016;48.172;8.058;2022-12-10T01:31:10;2.80;99.90
13892;DHT22;7016;48.172;8.058;2022-12-10T01:33:36;2.80;99.90
13892;DHT22;7016;48.172;8.058;2022-12-10T01:38:32;2.80;99.90
13892;DHT22;7016;48.172;8.058;2022-12-10T01:40:59;2.80;99.90
13892;DHT22;7016;48.172;8.058;2022-12-10T01:43:25;2.90;99.90
13892;DHT22;7016;48.172;8.058;2022-12-10T01:45:52;2.90;99.90
13892;DHT22;7016;48.172;8.058;2022-12-10T01:48:18;2.80;99.90
13892;DHT22;7016;48.172;8.058;2022-12-10T01:50:44;2.80;99.90
13892;DHT22;7016;48.172;8.058;2022-12-10T01:53:12;2.80;99.90
13892;DHT22;7016;48.172;8.058;2022-12-10T01:58:07;2.80;99.90
13892;DHT22;7016;48.172;8.058;2022-12-10T02:00:34;2.90;99.90
13892;DHT22;7016;48.172;8.058;2022-12-10T02:03:14;3.00;99.90
13892;DHT22;7016;48.172;8.058;2022-12-10T02:05:46;2.90;99.90
13892;DHT22;7016;48.172;8.058;2022-12-10T02:11:10;2.70;99.90
13892;DHT22;7016;48.172;8.058;2022-12-10T02:13:57;2.70;99.90
13892;DHT22;7016;48.172;8.058;2022-12-10T02:16:34;2.70;99.90
13892;DHT22;7016;48.172;8.058;2022-12-10T02:19:25;2.70;99.90
13892;DHT22;7016;48.172;8.058;2022-12-10T02:21:53;2.70;99.90
13892;DHT22;7016;48.172;8.058;2022-12-10T02:24:32;2.70;99.90
13892;DHT22;7016;48.172;8.058;2022-12-10T02:29:33;2.70;99.90
13892;DHT22;7016;48.172;8.058;2022-12-10T02:32:08;2.70;99.90
13892;DHT22;7016;48.172;8.058;2022-12-10T02:34:40;2.70;99.90
13892;DHT22;7016;48.172;8.058;2022-12-10T02:37:22;2.70;99.90
13892;DHT22;7016;48.172;8.058;2022-12-10T02:39:51;2.70;99.90
13892;DHT22;7016;48.172;8.058;2022-12-10T02:42:19;2.70;99.90
13892;DHT22;7016;48.172;8.058;2022-12-10T02:44:47;2.70;99.90
13892;DHT22;7016;48.172;8.058;2022-12-10T02:47:16;2.80;99.90
13892;DHT22;7016;48.172;8.058;2022-12-10T02:49:44;2.80;99.90
13892;DHT22;7016;48.172;8.058;2022-12-10T02:52:17;2.90;99.90
13892;DHT22;7016;48.172;8.058;2022-12-10T02:54:45;2.90;99.90
13892;DHT22;7016;48.172;8.058;2022-12-10T03:05:15;3.00;99.90
13892;DHT22;7016;48.172;8.058;2022-12-10T03:07:50;3.00;99.90
13892;DHT22;7016;48.172;8.058;2022-12-10T03:10:32;3.00;99.90
13892;DHT22;7016;48.172;8.058;2022-12-10T03:13:00;3.10;99.90
13892;DHT22;7016;48.172;8.058;2022-12-10T03:15:31;3.10;99.90
13892;DHT22;7016;48.172;8.058;2022-12-10T03:18:01;3.10;99.90
13892;DHT22;7016;48.172;8.058;2022-12-10T03:20:28;3.10;99.90
13892;DHT22;7016;48.172;8.058;2022-12-10T03:22:56;3.00;99.90
13892;DHT22;7016;48.172;8.058;2022-12-10T03:25:24;2.90;99.90
13892;DHT22;7016;48.172;8.058;2022-12-10T03:27:54;2.90;99.90
13892;DHT22;7016;48.172;8.058;2022-12-10T03:30:21;3.00;99.90
13892;DHT22;7016;48.172;8.058;2022-12-10T03:32:47;3.00;99.90
13892;DHT22;7016;48.172;8.058;2022-12-10T03:35:14;3.00;99.90
13892;DHT22;7016;48.172;8.058;2022-12-10T03:37:41;2.90;99.90
13892;DHT22;7016;48.172;8.058;2022-12-10T03:40:08;2.90;99.90
13892;DHT22;7016;48.172;8.058;2022-12-10T03:42:35;2.90;99.90
13892;DHT22;7016;48.172;8.058;2022-12-10T03:45:02;2.80;99.90
13892;DHT22;7016;48.172;8.058;2022-12-10T03:47:28;2.90;99.90
13892;DHT22;7016;48.172;8.058;2022-12-10T03:49:54;2.90;99.90
13892;DHT22;7016;48.172;8.058;2022-12-10T03:52:20;2.90;99.90
13892;DHT22;7016;48.172;8.058;2022-12-10T03:54:45;3.00;99.90
13892;DHT22;7016;48.172;8.058;2022-12-10T03:57:11;3.00;99.90
13892;DHT22;7016;48.172;8.058;2022-12-10T03:59:37;3.00;99.90
13892;DHT22;7016;48.172;8.058;2022-12-10T04:02:03;3.00;99.90
13892;DHT22;7016;48.172;8.058;2022-12-10T04:04:28;3.00;99.90
13892;DHT22;7016;48.172;8.058;2022-12-10T04:06:54;3.00;99.90
13892;DHT22;7016;48.172;8.058;2022-12-10T04:09:20;3.10;99.90
13892;DHT22;7016;48.172;8.058;2022-12-10T04:11:46;2.90;99.90
13892;DHT22;7016;48.172;8.058;2022-12-10T04:14:13;2.80;99.90
13892;DHT22;7016;48.172;8.058;2022-12-10T04:16:57;2.90;99.90
13892;DHT22;7016;48.172;8.058;2022-12-10T04:19:23;2.90;99.90
13892;DHT22;7016;48.172;8.058;2022-12-10T04:21:49;2.90;99.90
13892;DHT22;7016;48.172;8.058;2022-12-10T04:24:35;3.00;99.90
13892;DHT22;7016;48.172;8.058;2022-12-10T04:29:53;3.00;99.90
13892;DHT22;7016;48.172;8.058;2022-12-10T04:32:19;3.00;99.90
13892;DHT22;7016;48.172;8.058;2022-12-10T04:34:46;3.00;99.90
13892;DHT22;7016;48.172;8.058;2022-12-10T04:37:12;3.00;99.90
13892;DHT22;7016;48.172;8.058;2022-12-10T04:39:38;3.10;99.90
13892;DHT22;7016;48.172;8.058;2022-12-10T04:42:04;3.10;99.90
13892;DHT22;7016;48.172;8.058;2022-12-10T04:44:30;3.20;99.90
13892;DHT22;7016;48.172;8.058;2022-12-10T04:46:56;3.10;99.90
13892;DHT22;7016;48.172;8.058;2022-12-10T04:49:22;3.10;99.90
13892;DHT22;7016;48.172;8.058;2022-12-10T04:51:48;3.10;99.90
13892;DHT22;7016;48.172;8.058;2022-12-10T04:54:14;2.80;99.90
13892;DHT22;7016;48.172;8.058;2022-12-10T04:56:40;2.80;99.90
13892;DHT22;7016;48.172;8.058;2022-12-10T04:59:06;2.90;99.90
13892;DHT22;7016;48.172;8.058;2022-12-10T05:01:33;2.90;99.90
13892;DHT22;7016;48.172;8.058;2022-12-10T05:04:00;3.00;99.90
13892;DHT22;7016;48.172;8.058;2022-12-10T05:06:26;3.00;99.90
13892;DHT22;7016;48.172;8.058;2022-12-10T05:08:52;3.00;99.90
13892;DHT22;7016;48.172;8.058;2022-12-10T05:11:20;3.00;99.90
13892;DHT22;7016;48.172;8.058;2022-12-10T05:13:46;3.00;99.90
13892;DHT22;7016;48.172;8.058;2022-12-10T05:16:15;3.00;99.90
13892;DHT22;7016;48.172;8.058;2022-12-10T05:18:41;3.00;99.90
13892;DHT22;7016;48.172;8.058;2022-12-10T05:21:10;3.00;99.90
13892;DHT22;7016;48.172;8.058;2022-12-10T05:23:37;3.00;99.90
13892;DHT22;7016;48.172;8.058;2022-12-10T05:28:42;3.10;99.90
13892;DHT22;7016;48.172;8.058;2022-12-10T05:31:23;3.10;99.90
13892;DHT22;7016;48.172;8.058;2022-12-10T05:33:49;3.10;99.90
13892;DHT22;7016;48.172;8.058;2022-12-10T05:36:17;3.00;99.90
13892;DHT22;7016;48.172;8.058;2022-12-10T05:38:44;3.00;99.90
13892;DHT22;7016;48.172;8.058;2022-12-10T05:41:18;3.00;99.90
13892;DHT22;7016;48.172;8.058;2022-12-10T05:43:44;3.00;99.90
13892;DHT22;7016;48.172;8.058;2022-12-10T05:46:16;2.90;99.90
13892;DHT22;7016;48.172;8.058;2022-12-10T05:48:42;3.00;99.90
13892;DHT22;7016;48.172;8.058;2022-12-10T05:51:10;3.00;99.90
13892;DHT22;7016;48.172;8.058;2022-12-10T05:53:36;3.00;99.90
13892;DHT22;7016;48.172;8.058;2022-12-10T05:56:05;2.90;99.90
13892;DHT22;7016;48.172;8.058;2022-12-10T05:58:31;2.40;99.90
13892;DHT22;7016;48.172;8.058;2022-12-10T06:00:58;3.00;99.90
13892;DHT22;7016;48.172;8.058;2022-12-10T06:03:25;3.00;99.90
13892;DHT22;7016;48.172;8.058;2022-12-10T06:05:51;3.00;99.90
13892;DHT22;7016;48.172;8.058;2022-12-10T06:08:17;3.00;99.90
13892;DHT22;7016;48.172;8.058;2022-12-10T06:10:43;3.00;99.90
13892;DHT22;7016;48.172;8.058;2022-12-10T06:13:09;3.00;99.90
13892;DHT22;7016;48.172;8.058;2022-12-10T06:15:39;3.00;99.90
13892;DHT22;7016;48.172;8.058;2022-12-10T06:18:06;3.00;99.90
13892;DHT22;7016;48.172;8.058;2022-12-10T06:20:32;2.90;99.90
13892;DHT22;7016;48.172;8.058;2022-12-10T06:22:57;2.90;99.90
13892;DHT22;7016;48.172;8.058;2022-12-10T06:25:23;2.80;99.90
13892;DHT22;7016;48.172;8.058;2022-12-10T06:27:49;3.00;99.90
13892;DHT22;7016;48.172;8.058;2022-12-10T06:30:15;3.00;99.90
13892;DHT22;7016;48.172;8.058;2022-12-10T06:32:41;3.00;99.90
13892;DHT22;7016;48.172;8.058;2022-12-10T06:35:09;3.10;99.90
13892;DHT22;7016;48.172;8.058;2022-12-10T06:37:35;3.00;99.90
13892;DHT22;7016;48.172;8.058;2022-12-10T06:40:01;3.00;99.90
13892;DHT22;7016;48.172;8.058;2022-12-10T06:42:27;2.90;99.90
13892;DHT22;7016;48.172;8.058;2022-12-10T06:44:53;3.00;99.90
13892;DHT22;7016;48.172;8.058;2022-12-10T06:47:19;2.90;99.90
13892;DHT22;7016;48.172;8.058;2022-12-10T06:49:44;3.00;99.90
13892;DHT22;7016;48.172;8.058;2022-12-10T06:52:10;2.90;99.90
13892;DHT22;7016;48.172;8.058;2022-12-10T06:54:36;3.00;99.90
13892;DHT22;7016;48.172;8.058;2022-12-10T06:57:02;3.00;99.90
13892;DHT22;7016;48.172;8.058;2022-12-10T06:59:27;3.00;99.90
13892;DHT22;7016;48.172;8.058;2022-12-10T07:01:53;2.90;99.90
13892;DHT22;7016;48.172;8.058;2022-12-10T07:04:19;3.00;99.90
13892;DHT22;7016;48.172;8.058;2022-12-10T07:06:44;2.90;99.90
13892;DHT22;7016;48.172;8.058;2022-12-10T07:09:10;2.90;99.90
13892;DHT22;7016;48.172;8.058;2022-12-10T07:11:36;2.90;99.90
13892;DHT22;7016;48.172;8.058;2022-12-10T07:14:02;2.90;99.90
13892;DHT22;7016;48.172;8.058;2022-12-10T07:16:30;2.90;99.90
13892;DHT22;7016;48.172;8.058;2022-12-10T07:18:57;2.80;99.90
13892;DHT22;7016;48.172;8.058;2022-12-10T07:23:55;2.90;99.90
13892;DHT22;7016;48.172;8.058;2022-12-10T07:26:24;2.90;99.90
13892;DHT22;7016;48.172;8.058;2022-12-10T07:28:50;2.90;99.90
13892;DHT22;7016;48.172;8.058;2022-12-10T07:31:16;2.80;99.90
13892;DHT22;7016;48.172;8.058;2022-12-10T07:33:42;2.80;99.90
13892;DHT22;7016;48.172;8.058;2022-12-10T07:36:10;2.80;99.90
13892;DHT22;7016;48.172;8.058;2022-12-10T07:38:36;2.70;99.90
13892;DHT22;7016;48.172;8.058;2022-12-10T07:41:07;2.70;99.90
13892;DHT22;7016;48.172;8.058;2022-12-10T07:43:38;2.70;99.90
13892;DHT22;7016;48.172;8.058;2022-12-10T07:46:10;2.80;99.90
13892;DHT22;7016;48.172;8.058;2022-12-10T07:48:37;2.70;99.90
13892;DHT22;7016;48.172;8.058;2022-12-10T07:51:04;2.70;99.90
13892;DHT22;7016;48.172;8.058;2022-12-10T07:53:30;2.70;99.90
13892;DHT22;7016;48.172;8.058;2022-12-10T07:55:56;2.70;99.90
13892;DHT22;7016;48.172;8.058;2022-12-10T07:58:22;2.80;99.90
13892;DHT22;7016;48.172;8.058;2022-12-10T08:00:48;2.80;99.90
13892;DHT22;7016;48.172;8.058;2022-12-10T08:03:14;2.80;99.90
13892;DHT22;7016;48.172;8.058;2022-12-10T08:05:39;2.80;99.90
13892;DHT22;7016;48.172;8.058;2022-12-10T08:08:05;2.80;99.90
13892;DHT22;7016;48.172;8.058;2022-12-10T08:10:34;2.80;99.90
13892;DHT22;7016;48.172;8.058;2022-12-10T08:13:00;2.80;99.90
13892;DHT22;7016;48.172;8.058;2022-12-10T08:15:25;2.80;99.90
13892;DHT22;7016;48.172;8.058;2022-12-10T08:17:53;2.80;99.90
13892;DHT22;7016;48.172;8.058;2022-12-10T08:20:20;2.80;99.90
13892;DHT22;7016;48.172;8.058;2022-12-10T08:22:45;2.80;99.90
13892;DHT22;7016;48.172;8.058;2022-12-10T08:25:11;2.80;99.90
13892;DHT22;7016;48.172;8.058;2022-12-10T08:27:37;2.80;99.90
13892;DHT22;7016;48.172;8.058;2022-12-10T08:30:04;2.80;99.90
13892;DHT22;7016;48.172;8.058;2022-12-10T08:32:30;2.80;99.90
13892;DHT22;7016;48.172;8.058;2022-12-10T08:34:56;2.80;99.90
13892;DHT22;7016;48.172;8.058;2022-12-10T08:37:22;2.80;99.90
13892;DHT22;7016;48.172;8.058;2022-12-10T08:39:47;2.80;99.90
13892;DHT22;7016;48.172;8.058;2022-12-10T08:42:13;2.70;99.90
13892;DHT22;7016;48.172;8.058;2022-12-10T08:44:39;2.70;99.90
13892;DHT22;7016;48.172;8.058;2022-12-10T08:47:05;2.70;99.90
13892;DHT22;7016;48.172;8.058;2022-12-10T08:49:31;2.70;99.90
13892;DHT22;7016;48.172;8.058;2022-12-10T08:51:57;2.80;99.90
13892;DHT22;7016;48.172;8.058;2022-12-10T08:54:22;2.80;99.90
13892;DHT22;7016;48.172;8.058;2022-12-10T08:56:48;2.70;99.90
13892;DHT22;7016;48.172;8.058;2022-12-10T08:59:14;2.70;99.90
13892;DHT22;7016;48.172;8.058;2022-12-10T09:01:40;2.70;99.90
13892;DHT22;7016;48.172;8.058;2022-12-10T09:04:05;2.70;99.90
13892;DHT22;7016;48.172;8.058;2022-12-10T09:06:31;2.80;99.90
13892;DHT22;7016;48.172;8.058;2022-12-10T09:08:57;2.80;99.90
13892;DHT22;7016;48.172;8.058;2022-12-10T09:11:29;2.90;99.90
13892;DHT22;7016;48.172;8.058;2022-12-10T09:13:55;2.90;99.90
13892;DHT22;7016;48.172;8.058;2022-12-10T09:16:27;2.80;99.90
13892;DHT22;7016;48.172;8.058;2022-12-10T09:18:52;2.90;99.90
13892;DHT22;7016;48.172;8.058;2022-12-10T09:21:19;2.90;99.90
13892;DHT22;7016;48.172;8.058;2022-12-10T09:23:44;2.90;99.90
13892;DHT22;7016;48.172;8.058;2022-12-10T09:26:13;2.90;99.90
13892;DHT22;7016;48.172;8.058;2022-12-10T09:28:40;2.90;99.90
13892;DHT22;7016;48.172;8.058;2022-12-10T09:31:07;2.90;99.90
13892;DHT22;7016;48.172;8.058;2022-12-10T09:33:34;2.90;99.90
13892;DHT22;7016;48.172;8.058;2022-12-10T09:36:05;2.90;99.90
13892;DHT22;7016;48.172;8.058;2022-12-10T09:38:34;2.80;99.90
13892;DHT22;7016;48.172;8.058;2022-12-10T09:51:34;2.80;99.90
13892;DHT22;7016;48.172;8.058;2022-12-10T09:54:03;2.80;99.90
13892;DHT22;7016;48.172;8.058;2022-12-10T09:56:35;2.80;99.90
13892;DHT22;7016;48.172;8.058;2022-12-10T09:59:11;2.80;99.90
13892;DHT22;7016;48.172;8.058;2022-12-10T10:01:41;2.90;99.90
13892;DHT22;7016;48.172;8.058;2022-12-10T10:04:09;2.80;99.90
13892;DHT22;7016;48.172;8.058;2022-12-10T10:06:35;2.90;99.90
13892;DHT22;7016;48.172;8.058;2022-12-10T10:09:02;2.90;99.90
13892;DHT22;7016;48.172;8.058;2022-12-10T10:11:31;2.90;99.90
13892;DHT22;7016;48.172;8.058;2022-12-10T10:14:14;2.90;99.90
13892;DHT22;7016;48.172;8.058;2022-12-10T10:16:48;3.00;99.90
13892;DHT22;7016;48.172;8.058;2022-12-10T10:19:18;3.00;99.90
13892;DHT22;7016;48.172;8.058;2022-12-10T10:21:48;3.00;99.90
13892;DHT22;7016;48.172;8.058;2022-12-10T10:24:20;3.10;99.90
13892;DHT22;7016;48.172;8.058;2022-12-10T10:26:46;3.00;99.90
13892;DHT22;7016;48.172;8.058;2022-12-10T10:29:16;3.10;99.90
13892;DHT22;7016;48.172;8.058;2022-12-10T10:31:43;3.00;99.90
13892;DHT22;7016;48.172;8.058;2022-12-10T10:36:43;2.90;99.90
13892;DHT22;7016;48.172;8.058;2022-12-10T10:41:42;3.10;99.90
13892;DHT22;7016;48.172;8.058;2022-12-10T10:44:21;3.10;99.90
13892;DHT22;7016;48.172;8.058;2022-12-10T10:46:49;3.00;99.90
13892;DHT22;7016;48.172;8.058;2022-12-10T10:49:32;3.00;99.90
13892;DHT22;7016;48.172;8.058;2022-12-10T10:52:10;3.00;99.90
13892;DHT22;7016;48.172;8.058;2022-12-10T10:54:40;3.10;99.90
13892;DHT22;7016;48.172;8.058;2022-12-10T11:00:06;3.20;99.90
13892;DHT22;7016;48.172;8.058;2022-12-10T11:02:37;3.10;99.90
13892;DHT22;7016;48.172;8.058;2022-12-10T11:05:21;3.20;99.90
13892;DHT22;7016;48.172;8.058;2022-12-10T11:08:03;3.20;99.90
13892;DHT22;7016;48.172;8.058;2022-12-10T11:10:30;3.00;99.90
13892;DHT22;7016;48.172;8.058;2022-12-10T11:13:05;2.90;99.90
13892;DHT22;7016;48.172;8.058;2022-12-10T11:15:38;2.90;99.90
13892;DHT22;7016;48.172;8.058;2022-12-10T11:23:35;2.90;99.90
13892;DHT22;7016;48.172;8.058;2022-12-10T11:32:14;3.00;99.90
13892;DHT22;7016;48.172;8.058;2022-12-10T11:53:55;3.00;99.90
13892;DHT22;7016;48.172;8.058;2022-12-10T11:56:28;2.90;99.90
13892;DHT22;7016;48.172;8.058;2022-12-10T11:59:04;2.90;99.90
13892;DHT22;7016;48.172;8.058;2022-12-10T12:14:58;3.00;99.90
13892;DHT22;7016;48.172;8.058;2022-12-10T12:17:30;3.10;99.90
13892;DHT22;7016;48.172;8.058;2022-12-10T12:20:17;3.10;99.90
13892;DHT22;7016;48.172;8.058;2022-12-10T12:23:00;3.20;99.90
13892;DHT22;7016;48.172;8.058;2022-12-10T12:25:35;3.20;99.90
13892;DHT22;7016;48.172;8.058;2022-12-10T12:28:12;3.20;99.90
13892;DHT22;7016;48.172;8.058;2022-12-10T12:30:41;3.30;99.90
13892;DHT22;7016;48.172;8.058;2022-12-10T12:36:34;3.20;99.90
13892;DHT22;7016;48.172;8.058;2022-12-10T12:41:42;3.20;99.90
13892;DHT22;7016;48.172;8.058;2022-12-10T12:46:43;3.30;99.90
13892;DHT22;7016;48.172;8.058;2022-12-10T12:49:21;3.30;99.90
13892;DHT22;7016;48.172;8.058;2022-12-10T12:51:54;3.30;99.90
13892;DHT22;7016;48.172;8.058;2022-12-10T12:54:21;3.20;99.90
13892;DHT22;7016;48.172;8.058;2022-12-10T13:04:52;3.10;99.90
13892;DHT22;7016;48.172;8.058;2022-12-10T13:09:49;3.10;99.90
13892;DHT22;7016;48.172;8.058;2022-12-10T13:15:21;3.00;99.90
13892;DHT22;7016;48.172;8.058;2022-12-10T13:20:40;3.00;99.90
13892;DHT22;7016;48.172;8.058;2022-12-10T13:28:28;3.00;99.90
13892;DHT22;7016;48.172;8.058;2022-12-10T13:33:48;3.00;99.90
13892;DHT22;7016;48.172;8.058;2022-12-10T13:36:21;2.90;99.90
13892;DHT22;7016;48.172;8.058;2022-12-10T13:41:24;2.90;99.90
13892;DHT22;7016;48.172;8.058;2022-12-10T13:44:26;2.90;99.90
13892;DHT22;7016;48.172;8.058;2022-12-10T13:50:03;2.90;99.90
13892;DHT22;7016;48.172;8.058;2022-12-10T13:52:38;2.80;99.90
13892;DHT22;7016;48.172;8.058;2022-12-10T14:00:56;2.70;99.90
13892;DHT22;7016;48.172;8.058;2022-12-10T14:08:29;2.80;99.90
13892;DHT22;7016;48.172;8.058;2022-12-10T14:10:58;2.80;99.90
13892;DHT22;7016;48.172;8.058;2022-12-10T14:13:47;2.80;99.90
13892;DHT22;7016;48.172;8.058;2022-12-10T14:16:15;2.90;99.90
13892;DHT22;7016;48.172;8.058;2022-12-10T14:18:54;2.90;99.90
13892;DHT22;7016;48.172;8.058;2022-12-10T14:21:21;2.80;99.90
13892;DHT22;7016;48.172;8.058;2022-12-10T14:23:52;2.90;99.90
13892;DHT22;7016;48.172;8.058;2022-12-10T14:26:30;2.80;99.90
13892;DHT22;7016;48.172;8.058;2022-12-10T14:29:08;2.80;99.90
13892;DHT22;7016;48.172;8.058;2022-12-10T14:31:42;2.90;99.90
13892;DHT22;7016;48.172;8.058;2022-12-10T14:34:14;2.90;99.90
13892;DHT22;7016;48.172;8.058;2022-12-10T14:36:46;2.90;99.90
13892;DHT22;7016;48.172;8.058;2022-12-10T14:39:32;2.90;99.90
13892;DHT22;7016;48.172;8.058;2022-12-10T14:42:06;2.90;99.90
13892;DHT22;7016;48.172;8.058;2022-12-10T14:44:37;2.80;99.90
13892;DHT22;7016;48.172;8.058;2022-12-10T14:47:19;2.90;99.90
13892;DHT22;7016;48.172;8.058;2022-12-10T14:49:47;2.90;99.90
13892;DHT22;7016;48.172;8.058;2022-12-10T14:52:25;2.90;99.90
13892;DHT22;7016;48.172;8.058;2022-12-10T14:54:51;2.90;99.90
13892;DHT22;7016;48.172;8.058;2022-12-10T14:57:33;2.90;99.90
13892;DHT22;7016;48.172;8.058;2022-12-10T15:00:21;2.90;99.90
13892;DHT22;7016;48.172;8.058;2022-12-10T15:05:23;3.00;99.90
13892;DHT22;7016;48.172;8.058;2022-12-10T15:08:02;3.00;99.90
13892;DHT22;7016;48.172;8.058;2022-12-10T15:10:35;3.00;99.90
13892;DHT22;7016;48.172;8.058;2022-12-10T15:13:02;3.00;99.90
13892;DHT22;7016;48.172;8.058;2022-12-10T15:20:53;3.00;99.90
13892;DHT22;7016;48.172;8.058;2022-12-10T15:28:24;3.00;99.90
13892;DHT22;7016;48.172;8.058;2022-12-10T15:30:50;2.90;99.90
13892;DHT22;7016;48.172;8.058;2022-12-10T15:35:49;2.80;99.90
13892;DHT22;7016;48.172;8.058;2022-12-10T15:38:15;2.80;99.90
13892;DHT22;7016;48.172;8.058;2022-12-10T15:40:49;2.80;99.90
13892;DHT22;7016;48.172;8.058;2022-12-10T15:43:27;2.80;99.90
13892;DHT22;7016;48.172;8.058;2022-12-10T15:45:55;2.90;99.90
13892;DHT22;7016;48.172;8.058;2022-12-10T15:48:22;2.90;99.90
13892;DHT22;7016;48.172;8.058;2022-12-10T15:50:50;2.90;99.90
13892;DHT22;7016;48.172;8.058;2022-12-10T15:53:28;3.00;99.90
13892;DHT22;7016;48.172;8.058;2022-12-10T15:55:54;3.00;99.90
13892;DHT22;7016;48.172;8.058;2022-12-10T15:58:20;3.00;99.90
13892;DHT22;7016;48.172;8.058;2022-12-10T16:00:46;3.00;99.90
13892;DHT22;7016;48.172;8.058;2022-12-10T16:03:17;3.00;99.90
13892;DHT22;7016;48.172;8.058;2022-12-10T16:05:44;2.90;99.90
13892;DHT22;7016;48.172;8.058;2022-12-10T16:08:24;2.90;99.90
13892;DHT22;7016;48.172;8.058;2022-12-10T16:10:52;3.00;99.90
13892;DHT22;7016;48.172;8.058;2022-12-10T16:13:22;3.00;99.90
13892;DHT22;7016;48.172;8.058;2022-12-10T16:15:54;2.80;99.90
13892;DHT22;7016;48.172;8.058;2022-12-10T16:18:21;2.80;99.90
13892;DHT22;7016;48.172;8.058;2022-12-10T16:20:47;2.80;99.90
13892;DHT22;7016;48.172;8.058;2022-12-10T16:23:13;2.80;99.90
13892;DHT22;7016;48.172;8.058;2022-12-10T16:25:40;2.70;99.90
13892;DHT22;7016;48.172;8.058;2022-12-10T16:28:15;2.70;99.90
13892;DHT22;7016;48.172;8.058;2022-12-10T16:30:46;2.70;99.90
13892;DHT22;7016;48.172;8.058;2022-12-10T16:33:14;2.60;99.90
13892;DHT22;7016;48.172;8.058;2022-12-10T16:35:40;2.60;99.90
13892;DHT22;7016;48.172;8.058;2022-12-10T16:38:06;2.60;99.90
13892;DHT22;7016;48.172;8.058;2022-12-10T16:40:32;2.60;99.90
13892;DHT22;7016;48.172;8.058;2022-12-10T16:42:57;2.70;99.90
13892;DHT22;7016;48.172;8.058;2022-12-10T16:45:35;2.70;99.90
13892;DHT22;7016;48.172;8.058;2022-12-10T16:48:02;2.70;99.90
13892;DHT22;7016;48.172;8.058;2022-12-10T16:50:28;2.70;99.90
13892;DHT22;7016;48.172;8.058;2022-12-10T16:52:55;2.60;99.90
13892;DHT22;7016;48.172;8.058;2022-12-10T16:55:24;2.60;99.90
13892;DHT22;7016;48.172;8.058;2022-12-10T16:57:53;2.60;99.90
13892;DHT22;7016;48.172;8.058;2022-12-10T17:00:22;2.70;99.90
13892;DHT22;7016;48.172;8.058;2022-12-10T17:02:48;2.70;99.90
13892;DHT22;7016;48.172;8.058;2022-12-10T17:05:37;2.80;99.90
13892;DHT22;7016;48.172;8.058;2022-12-10T17:08:04;2.80;99.90
13892;DHT22;7016;48.172;8.058;2022-12-10T17:10:30;2.60;99.90
13892;DHT22;7016;48.172;8.058;2022-12-10T17:13:15;2.50;99.90
13892;DHT22;7016;48.172;8.058;2022-12-10T17:15:42;2.40;99.90
13892;DHT22;7016;48.172;8.058;2022-12-10T17:18:13;2.30;99.90
13892;DHT22;7016;48.172;8.058;2022-12-10T17:20:40;2.10;99.90
13892;DHT22;7016;48.172;8.058;2022-12-10T17:23:05;2.20;99.90
13892;DHT22;7016;48.172;8.058;2022-12-10T17:25:31;2.10;99.90
13892;DHT22;7016;48.172;8.058;2022-12-10T17:27:57;2.10;99.90
13892;DHT22;7016;48.172;8.058;2022-12-10T17:30:23;2.00;99.90
13892;DHT22;7016;48.172;8.058;2022-12-10T17:32:49;2.00;99.90
13892;DHT22;7016;48.172;8.058;2022-12-10T17:35:15;2.10;99.90
13892;DHT22;7016;48.172;8.058;2022-12-10T17:37:41;2.20;99.90
13892;DHT22;7016;48.172;8.058;2022-12-10T17:40:20;2.30;99.90
13892;DHT22;7016;48.172;8.058;2022-12-10T17:42:46;2.30;99.90
13892;DHT22;7016;48.172;8.058;2022-12-10T17:45:14;2.40;99.90
13892;DHT22;7016;48.172;8.058;2022-12-10T17:47:41;2.30;99.90
13892;DHT22;7016;48.172;8.058;2022-12-10T17:52:43;2.30;99.90
13892;DHT22;7016;48.172;8.058;2022-12-10T17:55:09;2.40;99.90
13892;DHT22;7016;48.172;8.058;2022-12-10T17:57:34;2.40;99.90
13892;DHT22;7016;48.172;8.058;2022-12-10T18:00:00;2.40;99.90
13892;DHT22;7016;48.172;8.058;2022-12-10T18:02:26;2.40;99.90
13892;DHT22;7016;48.172;8.058;2022-12-10T18:04:52;2.40;99.90
13892;DHT22;7016;48.172;8.058;2022-12-10T18:07:18;2.40;99.90
13892;DHT22;7016;48.172;8.058;2022-12-10T18:09:44;2.40;99.90
13892;DHT22;7016;48.172;8.058;2022-12-10T18:12:11;2.30;99.90
13892;DHT22;7016;48.172;8.058;2022-12-10T18:14:37;2.30;99.90
13892;DHT22;7016;48.172;8.058;2022-12-10T18:17:04;2.20;99.90
13892;DHT22;7016;48.172;8.058;2022-12-10T18:19:35;2.10;99.90
13892;DHT22;7016;48.172;8.058;2022-12-10T18:22:00;1.90;99.90
13892;DHT22;7016;48.172;8.058;2022-12-10T18:24:26;1.90;99.90
13892;DHT22;7016;48.172;8.058;2022-12-10T18:26:52;1.80;99.90
13892;DHT22;7016;48.172;8.058;2022-12-10T18:29:18;1.90;99.90
13892;DHT22;7016;48.172;8.058;2022-12-10T18:31:44;2.00;99.90
13892;DHT22;7016;48.172;8.058;2022-12-10T18:34:12;2.10;99.90
13892;DHT22;7016;48.172;8.058;2022-12-10T18:36:40;2.10;99.90
13892;DHT22;7016;48.172;8.058;2022-12-10T18:39:19;2.10;99.90
13892;DHT22;7016;48.172;8.058;2022-12-10T18:41:46;2.10;99.90
13892;DHT22;7016;48.172;8.058;2022-12-10T18:44:13;2.20;99.90
13892;DHT22;7016;48.172;8.058;2022-12-10T18:46:42;2.20;99.90
13892;DHT22;7016;48.172;8.058;2022-12-10T18:49:13;2.10;99.90